sensor_id;sensor_type;location;lat;lon;timestamp;noise_LAeq;noise_LA_min;noise_LA_max;noise_LA01;noise_LA95
72736;Laerm;60856;53.238;10.448;2022-10-16T08:08:17;35.31;30.37;61.34;;
72736;Laerm;60856;53.238;10.448;2022-10-16T08:10:42;34.07;30.32;49.42;;
72736;Laerm;60856;53.238;10.448;2022-10-16T08:13:08;35.28;30.78;45.39;;
72736;Laerm;60856;53.238;10.448;2022-10-16T08:15:33;33.85;30.99;48.31;;
72736;Laerm;60856;53.238;10.448;2022-10-16T08:18:00;35.06;31.08;51.78;;
72736;Laerm;60856;53.238;10.448;2022-10-16T08:20:26;34.37;31.22;42.19;;
72736;Laerm;60856;53.238;10.448;2022-10-16T08:22:51;34.13;31.12;48.00;;
72736;Laerm;60856;53.238;10.448;2022-10-16T08:25:16;38.03;32.88;60.41;;
72736;Laerm;60856;53.238;10.448;2022-10-16T08:27:42;37.24;31.50;48.39;;
72736;Laerm;60856;53.238;10.448;2022-10-16T08:30:07;37.58;33.33;48.32;;
72736;Laerm;60856;53.238;10.448;2022-10-16T08:32:33;36.88;31.22;50.93;;
72736;Laerm;60856;53.238;10.448;2022-10-16T08:34:58;38.52;32.59;50.87;;
72736;Laerm;60856;53.238;10.448;2022-10-16T08:40:27;34.08;31.48;50.63;;
72736;Laerm;60856;53.238;10.448;2022-10-16T08:48:22;37.09;33.13;42.29;;
72736;Laerm;60856;53.238;10.448;2022-10-16T08:50:51;41.54;31.89;56.58;;
72736;Laerm;60856;53.238;10.448;2022-10-16T08:53:28;38.26;31.86;49.39;;
72736;Laerm;60856;53.238;10.448;2022-10-16T08:55:55;34.55;31.76;46.55;;
72736;Laerm;60856;53.238;10.448;2022-10-16T08:58:21;38.33;31.85;51.04;;
72736;Laerm;60856;53.238;10.448;2022-10-16T09:00:51;38.90;32.80;58.94;;
72736;Laerm;60856;53.238;10.448;2022-10-16T09:05:52;36.20;31.91;50.51;;
72736;Laerm;60856;53.238;10.448;2022-10-16T09:10:51;36.89;33.79;45.92;;
72736;Laerm;60856;53.238;10.448;2022-10-16T09:13:29;36.36;33.08;44.09;;
72736;Laerm;60856;53.238;10.448;2022-10-16T09:16:30;35.62;32.12;47.45;;
72736;Laerm;60856;53.238;10.448;2022-10-16T09:21:34;38.79;33.07;49.75;;
72736;Laerm;60856;53.238;10.448;2022-10-16T09:24:11;39.23;32.34;52.42;;
72736;Laerm;60856;53.238;10.448;2022-10-16T09:26:37;35.96;32.61;41.95;;
72736;Laerm;60856;53.238;10.448;2022-10-16T09:29:02;37.13;33.11;44.18;;
72736;Laerm;60856;53.238;10.448;2022-10-16T09:31:27;34.96;32.48;39.56;;
72736;Laerm;60856;53.238;10.448;2022-10-16T09:33:59;41.09;33.65;62.73;;
72736;Laerm;60856;53.238;10.448;2022-10-16T09:36:25;37.91;34.45;51.71;;
72736;Laerm;60856;53.238;10.448;2022-10-16T09:39:01;36.76;33.72;49.10;;
72736;Laerm;60856;53.238;10.448;2022-10-16T09:41:26;39.71;32.67;54.14;;
72736;Laerm;60856;53.238;10.448;2022-10-16T09:43:53;36.32;33.06;50.66;;
72736;Laerm;60856;53.238;10.448;2022-10-16T09:46:40;52.90;33.82;73.25;;
72736;Laerm;60856;53.238;10.448;2022-10-16T09:49:23;37.32;33.06;49.58;;
72736;Laerm;60856;53.238;10.448;2022-10-16T09:51:49;35.11;32.13;45.39;;
72736;Laerm;60856;53.238;10.448;2022-10-16T09:54:15;35.04;31.34;41.98;;
72736;Laerm;60856;53.238;10.448;2022-10-16T09:56:41;41.82;34.06;50.39;;
72736;Laerm;60856;53.238;10.448;2022-10-16T09:59:14;46.34;36.08;76.60;;
72736;Laerm;60856;53.238;10.448;2022-10-16T10:01:47;38.78;33.50;50.29;;
72736;Laerm;60856;53.238;10.448;2022-10-16T10:04:13;38.25;31.98;49.41;;
72736;Laerm;60856;53.238;10.448;2022-10-16T10:06:43;36.55;32.44;44.28;;
72736;Laerm;60856;53.238;10.448;2022-10-16T10:09:19;37.62;33.44;60.90;;
72736;Laerm;60856;53.238;10.448;2022-10-16T10:14:21;36.13;31.89;46.01;;
72736;Laerm;60856;53.238;10.448;2022-10-16T10:16:47;36.83;32.38;50.07;;
72736;Laerm;60856;53.238;10.448;2022-10-16T10:19:17;39.34;31.58;52.83;;
72736;Laerm;60856;53.238;10.448;2022-10-16T10:21:43;38.49;31.95;50.53;;
72736;Laerm;60856;53.238;10.448;2022-10-16T10:27:14;39.11;32.93;49.54;;
72736;Laerm;60856;53.238;10.448;2022-10-16T10:39:47;35.24;31.31;43.14;;
72736;Laerm;60856;53.238;10.448;2022-10-16T10:42:24;40.30;32.36;59.02;;
72736;Laerm;60856;53.238;10.448;2022-10-16T10:50:12;35.77;31.56;48.71;;
72736;Laerm;60856;53.238;10.448;2022-10-16T11:00:43;36.38;32.96;45.73;;
72736;Laerm;60856;53.238;10.448;2022-10-16T11:05:56;42.21;32.71;55.73;;
72736;Laerm;60856;53.238;10.448;2022-10-16T11:08:26;37.54;33.60;47.00;;
72736;Laerm;60856;53.238;10.448;2022-10-16T11:15:47;37.29;31.82;53.51;;
72736;Laerm;60856;53.238;10.448;2022-10-16T11:18:18;35.63;31.57;42.36;;
72736;Laerm;60856;53.238;10.448;2022-10-16T11:20:46;40.27;33.41;62.57;;
72736;Laerm;60856;53.238;10.448;2022-10-16T11:23:24;36.39;32.66;49.78;;
72736;Laerm;60856;53.238;10.448;2022-10-16T11:25:51;38.55;33.12;49.20;;
72736;Laerm;60856;53.238;10.448;2022-10-16T11:28:18;38.64;34.85;46.19;;
72736;Laerm;60856;53.238;10.448;2022-10-16T11:33:22;36.08;32.97;46.87;;
72736;Laerm;60856;53.238;10.448;2022-10-16T11:36:08;37.72;31.45;52.44;;
72736;Laerm;60856;53.238;10.448;2022-10-16T11:39:00;35.43;31.26;47.00;;
72736;Laerm;60856;53.238;10.448;2022-10-16T11:43:58;38.50;32.35;50.75;;
72736;Laerm;60856;53.238;10.448;2022-10-16T11:46:27;36.08;31.54;46.65;;
72736;Laerm;60856;53.238;10.448;2022-10-16T11:48:59;37.38;31.69;52.45;;
72736;Laerm;60856;53.238;10.448;2022-10-16T11:56:28;36.87;33.08;49.28;;
72736;Laerm;60856;53.238;10.448;2022-10-16T11:58:58;34.52;31.40;43.23;;
72736;Laerm;60856;53.238;10.448;2022-10-16T12:01:28;36.60;32.29;55.65;;
72736;Laerm;60856;53.238;10.448;2022-10-16T12:06:50;37.00;32.48;52.96;;
72736;Laerm;60856;53.238;10.448;2022-10-16T12:09:27;38.95;32.15;51.27;;
72736;Laerm;60856;53.238;10.448;2022-10-16T12:11:53;35.48;32.46;45.22;;
72736;Laerm;60856;53.238;10.448;2022-10-16T12:14:20;38.53;32.55;49.87;;
72736;Laerm;60856;53.238;10.448;2022-10-16T12:16:53;39.08;33.47;49.70;;
72736;Laerm;60856;53.238;10.448;2022-10-16T12:19:19;43.33;34.10;55.34;;
72736;Laerm;60856;53.238;10.448;2022-10-16T12:21:45;40.80;35.32;58.96;;
72736;Laerm;60856;53.238;10.448;2022-10-16T12:27:22;37.12;31.34;54.24;;
72736;Laerm;60856;53.238;10.448;2022-10-16T12:29:49;37.67;33.79;44.95;;
72736;Laerm;60856;53.238;10.448;2022-10-16T12:32:53;36.91;33.34;50.27;;
72736;Laerm;60856;53.238;10.448;2022-10-16T12:35:18;37.02;32.18;52.73;;
72736;Laerm;60856;53.238;10.448;2022-10-16T12:37:45;35.29;31.77;46.84;;
72736;Laerm;60856;53.238;10.448;2022-10-16T12:40:14;39.10;32.34;51.87;;
72736;Laerm;60856;53.238;10.448;2022-10-16T12:42:41;40.88;35.76;52.33;;
72736;Laerm;60856;53.238;10.448;2022-10-16T12:48:18;37.01;30.85;51.60;;
72736;Laerm;60856;53.238;10.448;2022-10-16T12:50:44;34.37;30.39;47.28;;
72736;Laerm;60856;53.238;10.448;2022-10-16T12:53:22;37.91;31.50;54.46;;
72736;Laerm;60856;53.238;10.448;2022-10-16T12:55:51;35.13;29.92;51.89;;
72736;Laerm;60856;53.238;10.448;2022-10-16T12:58:36;39.53;30.34;50.56;;
72736;Laerm;60856;53.238;10.448;2022-10-16T13:01:19;33.44;29.61;46.40;;
72736;Laerm;60856;53.238;10.448;2022-10-16T13:04:00;33.27;29.80;43.67;;
72736;Laerm;60856;53.238;10.448;2022-10-16T13:11:52;41.46;33.65;62.72;;
72736;Laerm;60856;53.238;10.448;2022-10-16T13:28:14;38.24;33.76;46.88;;
72736;Laerm;60856;53.238;10.448;2022-10-16T13:30:43;36.97;32.32;50.16;;
72736;Laerm;60856;53.238;10.448;2022-10-16T13:33:15;35.59;31.60;51.30;;
72736;Laerm;60856;53.238;10.448;2022-10-16T13:35:52;36.54;31.53;54.02;;
72736;Laerm;60856;53.238;10.448;2022-10-16T13:38:19;37.32;30.64;50.55;;
72736;Laerm;60856;53.238;10.448;2022-10-16T13:41:18;36.21;31.05;54.89;;
72736;Laerm;60856;53.238;10.448;2022-10-16T13:43:40;35.53;31.13;47.95;;
72736;Laerm;60856;53.238;10.448;2022-10-16T13:46:16;35.94;31.88;47.37;;
72736;Laerm;60856;53.238;10.448;2022-10-16T13:48:41;36.41;30.88;51.69;;
72736;Laerm;60856;53.238;10.448;2022-10-16T13:51:17;39.17;34.82;49.49;;
72736;Laerm;60856;53.238;10.448;2022-10-16T13:53:45;41.56;34.25;59.75;;
72736;Laerm;60856;53.238;10.448;2022-10-16T13:56:18;38.71;33.13;49.28;;
72736;Laerm;60856;53.238;10.448;2022-10-16T14:08:26;37.01;31.42;48.62;;
72736;Laerm;60856;53.238;10.448;2022-10-16T14:57:19;35.11;31.01;49.40;;
72736;Laerm;60856;53.238;10.448;2022-10-16T14:59:45;38.92;30.61;56.44;;
72736;Laerm;60856;53.238;10.448;2022-10-16T15:08:20;43.31;30.09;64.60;;
72736;Laerm;60856;53.238;10.448;2022-10-16T15:10:46;40.42;30.37;56.53;;
72736;Laerm;60856;53.238;10.448;2022-10-16T15:13:19;43.30;31.55;63.15;;
72736;Laerm;60856;53.238;10.448;2022-10-16T15:15:45;37.25;30.91;53.86;;
72736;Laerm;60856;53.238;10.448;2022-10-16T15:18:12;37.99;31.06;51.89;;
72736;Laerm;60856;53.238;10.448;2022-10-16T15:20:39;33.85;30.26;46.17;;
72736;Laerm;60856;53.238;10.448;2022-10-16T15:23:06;36.55;30.28;49.83;;
72736;Laerm;60856;53.238;10.448;2022-10-16T15:28:00;39.34;29.40;51.31;;
72736;Laerm;60856;53.238;10.448;2022-10-16T15:30:26;37.13;29.73;48.75;;
72736;Laerm;60856;53.238;10.448;2022-10-16T15:32:51;37.03;30.95;55.14;;
72736;Laerm;60856;53.238;10.448;2022-10-16T15:35:20;36.82;31.15;59.10;;
72736;Laerm;60856;53.238;10.448;2022-10-16T15:37:50;43.38;32.11;60.96;;
72736;Laerm;60856;53.238;10.448;2022-10-16T15:43:19;38.86;31.21;59.20;;
72736;Laerm;60856;53.238;10.448;2022-10-16T15:45:58;38.75;30.45;56.06;;
72736;Laerm;60856;53.238;10.448;2022-10-16T15:48:24;41.46;30.21;60.80;;
72736;Laerm;60856;53.238;10.448;2022-10-16T15:50:50;38.75;30.58;56.40;;
72736;Laerm;60856;53.238;10.448;2022-10-16T15:53:15;35.07;29.61;53.62;;
72736;Laerm;60856;53.238;10.448;2022-10-16T15:55:40;37.65;29.88;57.96;;
72736;Laerm;60856;53.238;10.448;2022-10-16T15:58:06;40.45;30.11;62.47;;
72736;Laerm;60856;53.238;10.448;2022-10-16T16:00:31;33.44;29.79;46.13;;
72736;Laerm;60856;53.238;10.448;2022-10-16T16:03:00;33.08;30.09;45.07;;
72736;Laerm;60856;53.238;10.448;2022-10-16T16:05:27;33.23;29.98;42.07;;
72736;Laerm;60856;53.238;10.448;2022-10-16T16:08:08;34.29;29.33;52.00;;
72736;Laerm;60856;53.238;10.448;2022-10-16T16:11:03;33.24;30.03;45.91;;
72736;Laerm;60856;53.238;10.448;2022-10-16T16:13:29;45.98;30.36;66.68;;
72736;Laerm;60856;53.238;10.448;2022-10-16T16:15:54;33.40;30.29;41.30;;
72736;Laerm;60856;53.238;10.448;2022-10-16T16:18:20;32.71;29.40;42.74;;
72736;Laerm;60856;53.238;10.448;2022-10-16T16:20:45;33.43;29.39;42.26;;
72736;Laerm;60856;53.238;10.448;2022-10-16T16:23:14;50.36;29.82;77.03;;
72736;Laerm;60856;53.238;10.448;2022-10-16T16:25:39;34.01;30.18;49.66;;
72736;Laerm;60856;53.238;10.448;2022-10-16T16:28:04;34.12;30.68;44.24;;
72736;Laerm;60856;53.238;10.448;2022-10-16T16:30:32;33.84;30.49;39.91;;
72736;Laerm;60856;53.238;10.448;2022-10-16T16:32:57;34.79;31.70;38.89;;
72736;Laerm;60856;53.238;10.448;2022-10-16T16:43:53;34.54;31.35;41.68;;
72736;Laerm;60856;53.238;10.448;2022-10-16T16:46:19;34.49;30.83;46.65;;
72736;Laerm;60856;53.238;10.448;2022-10-16T16:48:44;38.25;31.13;52.43;;
72736;Laerm;60856;53.238;10.448;2022-10-16T16:51:11;36.48;31.53;52.23;;
72736;Laerm;60856;53.238;10.448;2022-10-16T16:53:40;40.74;32.19;52.96;;
